Richland, Michigan
Current Conditions -  °F | °C
As of 5:53 PM on Monday 24 Nov 2014 (Local Time) from KAZO Reporting Station
Unknown Precip Unknown Precip  
Wind Chill: 23°   Ceiling: 1500
Heat Index: 34°   Visibility: 9mi
Dew Point: 28°   Wind: 18mph
Humidity: 79%   Direction: 230°SW
Pressure: 29.53"   Gusts: 29mph
Location:  42.38°N, 85.46°W
Report Text: KAZO 242253Z 23016G25KT 9SM UP OVC015 01/M02 A2953 RMK AO2 PK WND 24037/2240 UPB14E24B41SNB2157E14B17E22B24E41 SLP003 P0000 T00111022
Loading
Personal Weather Stations






























Interactive Weather Map New forecast layout! Learn more

10-Day Weather Forecast

Advertisements
Track Severe Weather on mobile